Tuesday, September 18, 2018, 11:14 PM EDT
Back to Local

KIPT, Williamsport-lycoming County

Location: Montoursville, PA, United States Lat: 41.25
Local Time: 11:14 PM EDT ( 3:14 GMT) Lon: -76.917
Time Zone: US/Eastern Elev: 528 ft

Show me the last for .
Show Decoded

2018-09-18 22:54 METAR KIPT 190254Z AUTO 00000KT 10SM CLR 21/19 A2985 RMK AO2 SLP103 T02060194
                 51008 =
2018-09-18 21:54 METAR KIPT 190154Z 00000KT 10SM CLR 21/19 A2984 RMK AO2 SLP102 T02060194 =
2018-09-18 20:54 METAR KIPT 190054Z 00000KT 10SM CLR 21/19 A2984 RMK AO2 SLP100 T02110194 =
2018-09-18 19:54 METAR KIPT 182354Z 25003KT 10SM CLR 22/19 A2982 RMK AO2 SLP095 T02170194 10306
                 20217 53015 =
2018-09-18 18:54 METAR KIPT 182254Z 23003KT 10SM CLR 24/21 A2980 RMK AO2 SLP089 T02390206 =
2018-09-18 17:54 METAR KIPT 182154Z 29006KT 10SM CLR 28/18 A2979 RMK AO2 SLP084 T02830183 =
2018-09-18 16:54 METAR KIPT 182054Z 32009KT 10SM FEW050 FEW070 29/18 A2978 RMK AO2 SLP079
                 T02940178 55005 =
2018-09-18 15:54 METAR KIPT 181954Z 36007KT 10SM SCT050 29/17 A2978 RMK AO2 SLP079 T02940167 =
2018-09-18 14:54 METAR KIPT 181854Z 32009KT 10SM CLR 30/17 A2978 RMK AO2 SLP081 T03000172 =
2018-09-18 13:54 METAR KIPT 181754Z 36010KT 10SM FEW044 29/17 A2979 RMK AO2 SLP084 60000
                 T02890172 10294 20200 56013 =
2018-09-18 12:54 METAR KIPT 181654Z 27007KT 10SM FEW030 FEW038 27/20 A2980 RMK AO2 SLP086
                 T02720200 =
2018-09-18 12:01 METAR KIPT 181601Z 28006KT 10SM SCT025 BKN035 BKN043 25/19 A2982 RMK AO2
                 T02500194 =
2018-09-18 11:54 METAR KIPT 181554Z 26006KT 10SM SCT023 BKN029 26/19 A2982 RMK AO2 SLP093
                 T02560194 =
2018-09-18 10:54 METAR KIPT 181454Z 00000KT 10SM FEW022 BKN028 OVC035 24/19 A2983 RMK AO2 SLP098
                 60000 T02390194 51004 =
2018-09-18 10:22 METAR KIPT 181422Z 25006KT 10SM BKN023 BKN028 24/20 A2983 RMK AO2 T02390200 =
2018-09-18 09:54 METAR KIPT 181354Z 25008KT 10SM FEW040 BKN090 22/19 A2983 RMK AO2 SLP097
                 T02220194 =
2018-09-18 08:54 METAR KIPT 181254Z 27005KT 10SM FEW004 OVC090 21/19 A2983 RMK AO2 RAE1158 SLP097
                 P0000 T02060194 =
2018-09-18 08:05 METAR KIPT 181205Z 26006KT 10SM FEW004 OVC090 20/19 A2982 RMK AO2 RAE1158 P0000
                 T02000194 =
2018-09-18 07:54 METAR KIPT 181154Z 25007KT 10SM -RA OVC090 20/19 A2982 RMK AO2 SLP094 P0001
                 60087 70188 T02000194 10222 20194 53013 =
2018-09-18 06:54 METAR KIPT 181054Z 24004KT 10SM -RA FEW021 BKN085 OVC110 19/19 A2981 RMK AO2
                 SLP091 P0010 T01940189 =
2018-09-18 05:49 METAR KIPT 180949Z AUTO 24005KT 3SM +RA BR FEW016 OVC037 20/19 A2979 RMK AO2 LTG
                 DSNT SE SLP085 P0020 T02000189 =
2018-09-18 05:48 METAR KIPT 180948Z AUTO 24004KT 3SM +RA BR FEW016 OVC037 20/19 A2979 RMK AO2 LTG
                 DSNT SE P0020 =
2018-09-18 05:37 METAR KIPT 180937Z AUTO 25005KT 1 3/4SM +RA BR OVC035 20/19 A2979 RMK AO2 LTG
                 DSNT SE AND S P0012 T02000189 =
2018-09-18 05:03 METAR KIPT 180903Z AUTO 31005KT 10SM -RA SCT020 OVC033 21/19 A2978 RMK AO2 P0001
                 T02110189 =
2018-09-18 04:54 METAR KIPT 180854Z AUTO VRB06KT 10SM -RA BKN020 OVC033 22/19 A2978 RMK AO2
                 RAE26B43 SLP082 P0001 60056 T02170194 55002 =
2018-09-18 04:32 METAR KIPT 180832Z AUTO 28006KT 10SM OVC016 22/21 A2978 RMK AO2 RAE26 CIG
                 009V021 P0001 T02170206 =
2018-09-18 03:54 METAR KIPT 180754Z AUTO 26007KT 10SM -RA FEW005 BKN012 OVC024 22/21 A2977 RMK
                 AO2 SLP078 P0023 T02220211 =
2018-09-18 03:44 METAR KIPT 180744Z AUTO 26007KT 10SM -RA FEW005 BKN019 OVC024 22/21 A2977 RMK
                 AO2 P0023 T02220211 =
2018-09-18 03:34 METAR KIPT 180734Z AUTO 27007KT 3SM +RA BR FEW005 BKN012 OVC024 22/22 A2977 RMK
                 AO2 P0022 T02220217 =
2018-09-18 03:32 METAR KIPT 180732Z AUTO 27006KT 2 1/2SM RA BR FEW005 BKN015 OVC024 22/22 A2977
                 RMK AO2 P0021 T02220217 =
2018-09-18 03:10 METAR KIPT 180710Z AUTO 00000KT 1 3/4SM RA BR FEW004 BKN017 OVC027 22/22 A2977
                 RMK AO2 P0003 T02220217 =
2018-09-18 02:54 METAR KIPT 180654Z AUTO 00000KT 9SM -RA SCT004 BKN020 OVC034 22/22 A2978 RMK AO2
                 LTG DSNT E SLP079 P0032 T02220217 =
2018-09-18 02:38 METAR KIPT 180638Z AUTO 00000KT 3SM -RA BR FEW005 OVC034 22/22 A2978 RMK AO2
                 P0032 T02220217 =
2018-09-18 02:23 METAR KIPT 180623Z AUTO 33003KT 2SM +RA BR OVC034 22/22 A2978 RMK AO2 VIS 1
                 1/2V4 P0024 T02220217 =
2018-09-18 02:08 METAR KIPT 180608Z AUTO 33003KT 3SM RA BR FEW008 BKN033 OVC041 22/22 A2978 RMK
                 AO2 P0016 T02220217 =
2018-09-18 02:01 METAR KIPT 180601Z AUTO 00000KT 1 1/4SM +RA BR FEW008 SCT014 OVC031 22/22 A2978
                 RMK AO2 P0013 T02220222 =
2018-09-18 01:54 METAR KIPT 180554Z AUTO 30003KT 1 1/2SM +RA BR SCT008 BKN014 OVC025 22/22 A2979
                 RMK AO2 RAB02 SLP084 P0023 60060 T02220217 10239 20217 58009 =
2018-09-18 01:50 METAR KIPT 180550Z AUTO 28006KT 2 1/2SM +RA BR BKN008 BKN016 OVC033 22/22 A2979
                 RMK AO2 RAB02 P0019 =
2018-09-18 01:30 METAR KIPT 180530Z AUTO 00000KT 6SM -RA BR BKN011 OVC039 23/22 A2979 RMK AO2
                 RAB02 P0009 T02280217 =
2018-09-18 00:54 METAR KIPT 180454Z AUTO VRB03KT 10SM FEW012 SCT046 OVC065 24/22 A2980 RMK AO2
                 RAE0359 SLP087 P0000 T02390217 402390172 =
2018-09-18 00:16 METAR KIPT 180416Z AUTO 17006KT 10SM SCT011 SCT018 OVC060 23/21 A2980 RMK AO2
                 RAE0359 P0000 T02330211 TSNO =
2018-09-17 23:54 METAR KIPT 180354Z AUTO VRB03KT 10SM -RA OVC010 23/22 A2981 RMK AO2 RAE25B48
                 SLP092 P0002 T02330217 TSNO =

Support USWX by starting your Amazon purchase here.